North Creek, NY (12853)

6:24 PM EST on February 09, 2016 (GMT -0500)
Old River Road | | Change Station
CLOSE
Current Station
Personal Weather Station
Location: North Creek, NY
Elevation: 1030 ft
Nearby Weather Stations

Elev 1030 ft 43.71 °N, 73.99 °W | Updated 4 seconds ago

Overcast
Overcast
24.7 °F
Feels Like 25 °F
N
0.0
Wind Variable Wind from SSE
Gusts 2.0 mph

Today
High -- | Low -- °F
--% Chance of Precip.
Yesterday
High -- | Low -- °F
Precip. -- in
Pressure 29.61 in
Visibility 10.0 miles
Clouds Mostly Cloudy 3300 ft
Mostly Cloudy 5000 ft
Overcast 6000 ft
Windchill 25 °F
Dew Point 21 °F
Humidity 87%
Rainfall 0.05 in
Snow Depth Not available.
7:03 AM 5:17 PM
New Moon, 3% visible
METAR KGFL 092253Z AUTO 00000KT 10SM BKN033 BKN050 OVC060 M03/M08 A2958 RMK AO2 SLP027 T10281078
Pressure 29.61 in
Visibility 10.0 miles
Clouds Mostly Cloudy 3300 ft
Mostly Cloudy 5000 ft
Overcast 6000 ft
Windchill 25 °F
Dew Point 21 °F
Humidity 87%
Rainfall 0.05 in
Snow Depth Not available.
7:03 AM 5:17 PM
New Moon, 3% visible
METAR KGFL 092253Z AUTO 00000KT 10SM BKN033 BKN050 OVC060 M03/M08 A2958 RMK AO2 SLP027 T10281078

10-Day Weather Forecast

Almanac

Astronomy

Feb. 09, 2016 Rise Set
Actual Time
Civil Twilight
Nautical Twilight
Astronomical Twilight
Moon
Length of Visible Light
Length of Day
Tomorrow will be .
, % of the Moon is Illuminated

Today's Extremes

State Highs State Lows

Community

WunderPhotos

Upload Photos

1,891,744 photos uploaded!

WunderBlog® & News

Nearby

Air Quality

  Air Quality AQ Index Pollutant
Not available.

Snow Depth

Station Depth Elevation

Earthquake Activity

City Distance Mag. Time & Date
Minimum magnitude displayed is 2.5.

Coastal Water Temperatures

Place Temperature

Stations

Nearby Weather Stations

Station Location Temp. Windchill Dew Point Humidity Wind Precip. Elev Updated Type
                   

Watches & Warnings

There are currently no watches in effect.